Startpagina
METAR-TAF:

METAR-TAF

Vliegvelden :

Praag, Tsjechië

Kbely

breedte: 50-07-17N, lengte: 14-32-37E, hoogte: 286 m

Actueel weer

Dit bericht is 52 minuten geleden gemaakt, om 00:00 UTC
Wind 4 kt uit het noordnoordwesten, variërend tussen het noordwesten en het noordoosten
Temperatuur -4°C
Vochtigheid 74%
Druk 1022 hPa
Zicht 10 km of meer
geen wolken onder 1500 m en geen cumulonimbus

METAR: LKKB 220000Z 34004KT 310V050 CAVOK M04/M08 Q1022

Tijdstip: 01:52 (00:52 UTC)

Verwachting

Dit bericht is 1 uur en het 52 minuten geleden gemaakt, om 23:00 UTC
Verwachting geldig van 22 om 00 UTC tot 23 om 00 UTC
Wind 8 kt uit het noordoosten
Zicht 10 km of meer
geen wolken onder 1500 m en geen cumulonimbus
Tijdelijke
van 22 om 10 UTC tot 22 om 22 UTC
Wind 14 kt uit het noordoosten met uitschieters tot 28 kt

TAF: LKKB 212300Z 2200/2300 04008KT CAVOK TEMPO 2210/2222 04014G28KT

Waarnemingen en weersverwachtingen van meer dan 4000 vliegvelden (METAR en TAF).

De beschikbare stations zijn de gele en rode punten op de kaart.

Ga met uw muis naar het station om de naam te zien.

Klik dan om waarnemingen en weersverwachtingen te zien.

kaart wijzigen: klik op de groene knoppen met een zwart kruis om in te zoomen, op de groene knop met een streepje om uit te zoomen of op de groene pijlen voor aangrenzende kaarten.


METAR-TAF: